Airfield :
LOGIN :

Register | Disclaimer

   EN    FR    IT 

 










Legend :    VFR   Marginal VFR   IFR   Intensive IFR   Very Intensive IFR
Visi :
Ceiling :
>= 8 km
>= 3000ft
5 to 8 km
1000 to 3000 ft
1500m to 5 km
500 to 1000 ft
800 to 1500m
200 to 500 ft
< 800m
< 200 ft
Symbols :   Thunderstorms  Fog  Heavy snow  Heavy precipitations  Wind > 20 kt
SIGMETs :     Misc.  Thunderstorms  Icing  Turbulence  Mountain Waves  Volcanic Ashes







- Airport Elevation : 410 ft
- IATA code : AVB


LIPA - Aviano AB Pordenone

CURRENT METAR :
  • 141655Z 08015KT 9999 TS SCT025CB BKN055 23/20 Q1012 RMK OVC VIS MIN 9999 WIND THR05 /////KT WIND THR23 /////KT A2991 BLU

EXPIRED METARs :
  • 141555Z 09006KT 9999 FEW050CB BKN100 27/19 Q1011 RMK BKN VIS MIN 9999 WIND THR05 /////KT WIND THR23 /////KT A2988 BLU
  • 141455Z 13006KT 9999 SCT080 SCT120 27/21 Q1011 RETS RMK BKN VIS MIN 9999 WIND THR05 /////KT WIND THR23 /////KT A2986 BLU

TAF TAF LIPA
Valid from the 14 at 15:00 until the 15 at 00:00 UTC


141400Z 1415/1424 04005KT 9999 BKN070
TEMPO 1415/1418 3500 TSRA FEW020CB BKN030
No reported NOTAMs for that airfield.
2 SIGMETs reported for the Milano FIR (LIMM) :
 
Embedded thunderstorms
LIMM SIGMET 4 VALID 141410/141810 LIIP
LIMM MILANO FIR EMBD TS FCST SE OF LINE N4405 E00658 - N4644 E01247 TOP FL420 STNR NC=
Severe turbulence
LIMM SIGMET 3 VALID 141400/141800 LIIP
LIMM MILANO FIR SEV TURB FCST W OF LINE N4658 E01038 - N4327 E01024 FL240/380 MOV E NC=



MET'MAP, your aeronautical weather chart ! - Copyright ORBIFLY December 2007 - Disclaimer

ORBIFLY MET'MAP TEAM :

Programming & Development : Alexandra Zaïnal
Concept & Development : Baudouin d'Aumeries
Co-Development & Prog : Marc-Olivier Méhu
Technical & hardware support : Manuel Goepfert

Contact : metmap@orbifly.com




SOURCES & CREDITS :

   NOAA